Time;durP1;ratioP1;P1;durP2;ratioP2;P2;SDS_P1;SDS_P2;PMS_P1;PMS_P2;Temp;Humidity;BMP_temperature;BMP_pressure;BME280_temperature;BME280_humidity;BME280_pressure;Samples;Min_cycle;Max_cycle;Signal;HPM_P1;HPM_P2
2022/08/22 00:00:37;;;;;;;10.17;8.27;;;;;;;;;;5072759;28;20454;-75
2022/08/22 00:03:21;;;;;;;13.27;9.63;;;;;;;;;;5072776;28;20467;-75
2022/08/22 00:05:52;;;;;;;14.27;11.47;;;;;;;;;;5072471;28;20494;-75
2022/08/22 00:08:25;;;;;;;14.17;9.30;;;;;;;;;;5072657;28;20455;-75
2022/08/22 00:10:57;;;;;;;9.60;8.60;;;;;;;;;;5072872;28;20456;-75
2022/08/22 00:13:28;;;;;;;7.70;6.80;;;;;;;;;;5072464;28;20475;-75
2022/08/22 00:15:59;;;;;;;8.97;7.37;;;;;;;;;;5076848;28;20458;-76
2022/08/22 00:18:30;;;;;;;11.80;8.40;;;;;;;;;;5076683;28;20936;-75
2022/08/22 00:21:03;;;;;;;13.40;9.07;;;;;;;;;;5076597;28;20550;-75
2022/08/22 00:23:33;;;;;;;10.30;8.83;;;;;;;;;;5076306;28;20467;-75
2022/08/22 00:26:02;;;;;;;10.63;8.50;;;;;;;;;;5075909;28;20848;-75
2022/08/22 00:28:31;;;;;;;11.20;8.80;;;;;;;;;;5076297;28;20451;-75
2022/08/22 00:31:01;;;;;;;10.77;8.30;;;;;;;;;;5076088;28;20836;-75
2022/08/22 00:33:35;;;;;;;9.13;8.23;;;;;;;;;;5076096;28;20829;-75
2022/08/22 00:36:08;;;;;;;13.67;9.33;;;;;;;;;;5076469;28;20448;-75
2022/08/22 00:38:38;;;;;;;13.70;10.40;;;;;;;;;;5076238;28;20459;-75
2022/08/22 00:41:08;;;;;;;12.87;9.27;;;;;;;;;;5076114;28;20447;-75
2022/08/22 00:43:53;;;;;;;11.67;9.03;;;;;;;;;;5075699;28;21012;-74
2022/08/22 00:46:27;;;;;;;11.67;8.93;;;;;;;;;;5065870;28;20463;-75
2022/08/22 00:49:10;;;;;;;11.60;8.93;;;;;;;;;;5076098;28;20459;-75
2022/08/22 00:51:55;;;;;;;9.73;7.87;;;;;;;;;;5075833;28;20458;-75
2022/08/22 00:54:29;;;;;;;11.87;8.60;;;;;;;;;;5075627;28;20470;-75
2022/08/22 00:57:06;;;;;;;16.47;8.60;;;;;;;;;;5075960;28;21046;-75
2022/08/22 00:59:54;;;;;;;8.50;7.57;;;;;;;;;;5075425;28;20451;-75
2022/08/22 01:02:30;;;;;;;9.50;8.40;;;;;;;;;;5070904;28;20474;-75
2022/08/22 01:05:10;;;;;;;9.73;7.50;;;;;;;;;;5075804;28;20524;-75
2022/08/22 01:07:52;;;;;;;9.57;8.30;;;;;;;;;;5075665;28;20454;-75
2022/08/22 01:10:29;;;;;;;13.10;8.20;;;;;;;;;;5073434;28;20543;-75
2022/08/22 01:13:03;;;;;;;9.40;8.40;;;;;;;;;;5075205;28;20972;-75
2022/08/22 01:15:33;;;;;;;9.90;8.67;;;;;;;;;;5075464;28;20443;-75
2022/08/22 01:18:08;;;;;;;14.20;8.93;;;;;;;;;;5075566;28;20497;-75
2022/08/22 01:20:45;;;;;;;10.53;8.50;;;;;;;;;;5075391;28;20455;-75
2022/08/22 01:23:31;;;;;;;9.90;8.70;;;;;;;;;;5075406;28;20474;-75
2022/08/22 01:26:19;;;;;;;11.00;8.73;;;;;;;;;;5074697;28;20492;-75
2022/08/22 01:29:13;;;;;;;8.10;7.30;;;;;;;;;;5075534;28;20960;-75
2022/08/22 01:32:04;;;;;;;10.30;7.93;;;;;;;;;;5039497;28;20976;-75
2022/08/22 01:34:43;;;;;;;10.50;8.60;;;;;;;;;;5074958;28;20483;-75
2022/08/22 01:37:23;;;;;;;8.87;7.93;;;;;;;;;;5075292;28;20451;-75
2022/08/22 01:40:04;;;;;;;11.30;9.00;;;;;;;;;;5075259;28;20818;-75
2022/08/22 01:42:38;;;;;;;8.43;7.37;;;;;;;;;;5074953;28;20452;-75
2022/08/22 01:45:20;;;;;;;10.83;8.20;;;;;;;;;;5074722;28;20487;-75
2022/08/22 01:47:49;;;;;;;9.20;8.23;;;;;;;;;;5072805;28;20975;-75
2022/08/22 01:50:21;;;;;;;8.00;7.20;;;;;;;;;;5074935;28;20447;-75
2022/08/22 01:52:50;;;;;;;9.40;8.50;;;;;;;;;;5074898;28;20483;-75
2022/08/22 01:55:24;;;;;;;8.20;7.37;;;;;;;;;;5074896;28;20448;-75
2022/08/22 01:57:52;;;;;;;9.37;8.13;;;;;;;;;;5074867;28;20818;-75
2022/08/22 02:03:25;;;;;;;10.03;7.83;;;;;;;;;;5074492;28;20940;-75
2022/08/22 02:06:00;;;;;;;9.73;8.10;;;;;;;;;;5074739;28;20483;-75
2022/08/22 02:08:31;;;;;;;9.10;7.80;;;;;;;;;;5074533;28;20513;-75
2022/08/22 02:11:02;;;;;;;8.53;6.70;;;;;;;;;;5074581;28;20470;-75
2022/08/22 02:13:37;;;;;;;8.47;6.47;;;;;;;;;;5073633;28;21057;-75
2022/08/22 02:16:08;;;;;;;8.63;7.20;;;;;;;;;;5074404;28;20454;-75
2022/08/22 02:18:42;;;;;;;8.90;7.80;;;;;;;;;;5074351;28;20828;-75
2022/08/22 02:21:16;;;;;;;9.07;8.13;;;;;;;;;;5074379;28;20509;-75
2022/08/22 02:23:48;;;;;;;9.37;7.47;;;;;;;;;;5074035;28;21004;-76
2022/08/22 02:26:17;;;;;;;9.20;7.40;;;;;;;;;;5074032;28;20495;-75
2022/08/22 02:28:51;;;;;;;8.63;6.90;;;;;;;;;;5074231;28;20463;-75
2022/08/22 02:31:23;;;;;;;8.00;7.10;;;;;;;;;;5074440;28;20455;-75
2022/08/22 02:33:52;;;;;;;8.80;7.90;;;;;;;;;;5073929;28;20855;-75
2022/08/22 02:36:22;;;;;;;10.50;8.27;;;;;;;;;;5073941;28;20447;-75
2022/08/22 02:38:53;;;;;;;9.70;8.40;;;;;;;;;;5073401;28;20451;-75
2022/08/22 02:41:24;;;;;;;11.17;8.50;;;;;;;;;;5073827;28;20459;-75
2022/08/22 02:43:57;;;;;;;11.67;8.87;;;;;;;;;;5073823;28;20957;-75
2022/08/22 02:46:29;;;;;;;10.47;9.00;;;;;;;;;;5073637;28;21020;-75
2022/08/22 02:49:02;;;;;;;9.97;8.60;;;;;;;;;;5073885;28;20459;-75
2022/08/22 02:51:36;;;;;;;12.00;7.97;;;;;;;;;;5073734;28;20501;-75
2022/08/22 02:54:08;;;;;;;9.83;8.00;;;;;;;;;;5073466;28;20932;-75
2022/08/22 02:56:39;;;;;;;10.77;8.13;;;;;;;;;;5073481;28;20934;-75
2022/08/22 02:59:15;;;;;;;7.40;6.70;;;;;;;;;;5073566;28;20502;-75
2022/08/22 03:01:43;;;;;;;12.13;9.20;;;;;;;;;;5073476;28;20452;-75
2022/08/22 03:04:21;;;;;;;10.17;9.00;;;;;;;;;;5073115;28;20471;-75
2022/08/22 03:07:01;;;;;;;11.70;9.50;;;;;;;;;;5073589;28;20491;-75
2022/08/22 03:09:31;;;;;;;10.33;9.37;;;;;;;;;;5073336;28;20459;-75
2022/08/22 03:12:02;;;;;;;14.03;9.50;;;;;;;;;;5073397;28;20461;-75
2022/08/22 03:14:32;;;;;;;11.50;9.63;;;;;;;;;;5072590;28;20482;-75
2022/08/22 03:17:04;;;;;;;11.13;9.63;;;;;;;;;;5073366;28;20452;-75
2022/08/22 03:19:44;;;;;;;9.33;8.27;;;;;;;;;;5073156;28;20518;-75
2022/08/22 03:22:16;;;;;;;11.50;9.50;;;;;;;;;;5073477;28;20478;-75
2022/08/22 03:24:57;;;;;;;9.83;8.83;;;;;;;;;;5072746;28;20479;-75
2022/08/22 03:27:27;;;;;;;10.37;9.10;;;;;;;;;;5073126;28;20459;-75
2022/08/22 03:29:56;;;;;;;10.30;9.13;;;;;;;;;;5073189;28;20456;-75
2022/08/22 03:32:25;;;;;;;12.13;9.70;;;;;;;;;;5073041;28;20462;-75
2022/08/22 03:34:56;;;;;;;11.07;9.63;;;;;;;;;;5073089;28;20889;-75
2022/08/22 03:37:26;;;;;;;12.43;9.80;;;;;;;;;;5072867;28;20552;-75
2022/08/22 03:39:56;;;;;;;14.77;10.77;;;;;;;;;;5073055;28;20466;-75
2022/08/22 03:42:47;;;;;;;9.47;8.50;;;;;;;;;;5072962;28;20452;-75
2022/08/22 03:45:27;;;;;;;16.23;9.10;;;;;;;;;;5072572;28;20487;-75
2022/08/22 03:48:07;;;;;;;12.70;9.77;;;;;;;;;;5072840;28;20505;-75
2022/08/22 03:50:47;;;;;;;9.80;8.70;;;;;;;;;;5072780;28;20801;-75
2022/08/22 03:53:32;;;;;;;12.07;10.03;;;;;;;;;;5072838;28;20471;-75
2022/08/22 03:56:17;;;;;;;16.77;9.10;;;;;;;;;;5072621;28;20455;-75
2022/08/22 03:58:55;;;;;;;14.00;12.00;;;;;;;;;;5072938;28;20972;-75
2022/08/22 04:01:39;;;;;;;15.80;11.97;;;;;;;;;;5072616;28;20451;-75
2022/08/22 04:04:17;;;;;;;11.67;9.70;;;;;;;;;;5072488;28;20487;-75
2022/08/22 04:06:54;;;;;;;10.63;9.50;;;;;;;;;;5072777;28;20862;-75
2022/08/22 04:09:29;;;;;;;9.90;8.90;;;;;;;;;;5072689;28;20466;-75
2022/08/22 04:12:07;;;;;;;11.23;8.00;;;;;;;;;;5072665;28;20470;-75
2022/08/22 04:14:42;;;;;;;11.33;8.40;;;;;;;;;;5071759;28;20472;-75
2022/08/22 04:17:24;;;;;;;12.90;9.97;;;;;;;;;;5072647;28;20496;-75
2022/08/22 04:20:00;;;;;;;10.43;9.30;;;;;;;;;;5070334;28;20984;-75
2022/08/22 04:22:34;;;;;;;15.77;12.37;;;;;;;;;;5072419;28;20951;-75
2022/08/22 04:25:03;;;;;;;10.70;9.53;;;;;;;;;;5072185;28;20456;-75
2022/08/22 04:27:33;;;;;;;11.40;10.20;;;;;;;;;;5072306;28;20447;-75
2022/08/22 04:30:07;;;;;;;11.53;10.23;;;;;;;;;;5072695;28;20972;-75
2022/08/22 04:32:38;;;;;;;12.70;9.93;;;;;;;;;;5072275;28;20944;-75
2022/08/22 04:35:08;;;;;;;13.10;11.77;;;;;;;;;;5072273;28;21005;-75
2022/08/22 04:37:41;;;;;;;14.33;12.87;;;;;;;;;;5072361;28;20459;-75
2022/08/22 04:40:11;;;;;;;13.20;10.90;;;;;;;;;;5072730;28;20817;-75
2022/08/22 04:42:40;;;;;;;17.20;10.33;;;;;;;;;;5072322;28;20865;-75
2022/08/22 04:45:11;;;;;;;14.23;11.80;;;;;;;;;;5071865;28;20460;-75
2022/08/22 04:47:39;;;;;;;15.43;12.70;;;;;;;;;;5072278;28;20456;-75
2022/08/22 04:50:10;;;;;;;17.63;13.10;;;;;;;;;;5072288;28;20823;-75
2022/08/22 04:52:47;;;;;;;17.87;12.87;;;;;;;;;;5072359;28;20462;-75
2022/08/22 04:55:18;;;;;;;13.43;11.20;;;;;;;;;;5071866;28;20455;-74
2022/08/22 04:57:49;;;;;;;18.07;14.70;;;;;;;;;;5072221;28;20455;-75
2022/08/22 05:00:18;;;;;;;12.97;11.57;;;;;;;;;;5072554;28;20452;-75
2022/08/22 05:02:47;;;;;;;11.90;9.50;;;;;;;;;;5075839;28;20448;-75
2022/08/22 05:05:18;;;;;;;11.43;10.30;;;;;;;;;;5075461;28;20451;-75
2022/08/22 05:07:47;;;;;;;14.57;11.40;;;;;;;;;;5075978;28;20925;-75
2022/08/22 05:10:25;;;;;;;13.87;12.00;;;;;;;;;;5075741;28;20451;-75
2022/08/22 05:12:55;;;;;;;11.70;10.37;;;;;;;;;;5075034;28;20471;-75
2022/08/22 05:15:25;;;;;;;22.33;11.90;;;;;;;;;;5075299;28;20456;-75
2022/08/22 05:17:54;;;;;;;13.27;10.90;;;;;;;;;;5075693;28;20460;-75
2022/08/22 05:20:22;;;;;;;14.90;11.93;;;;;;;;;;5075522;28;20960;-75
2022/08/22 05:22:51;;;;;;;15.90;10.43;;;;;;;;;;5075446;28;20483;-75
2022/08/22 05:25:21;;;;;;;13.47;11.30;;;;;;;;;;5084246;28;20451;-75
2022/08/22 05:27:49;;;;;;;14.60;10.93;;;;;;;;;;5095415;28;20454;-75
2022/08/22 05:30:21;;;;;;;16.53;11.20;;;;;;;;;;5095416;28;20451;-75
2022/08/22 05:32:51;;;;;;;14.20;11.67;;;;;;;;;;5095268;28;20502;-74
2022/08/22 05:35:19;;;;;;;14.10;12.07;;;;;;;;;;5095048;28;20451;-75
2022/08/22 05:37:49;;;;;;;13.57;12.17;;;;;;;;;;5095570;28;20457;-75
2022/08/22 05:40:19;;;;;;;11.23;10.07;;;;;;;;;;5095156;28;20482;-74
2022/08/22 05:42:46;;;;;;;11.97;10.67;;;;;;;;;;5095196;28;20461;-75
2022/08/22 05:45:14;;;;;;;13.20;10.80;;;;;;;;;;5094937;28;20967;-74
2022/08/22 05:47:42;;;;;;;16.60;11.50;;;;;;;;;;5094922;28;20492;-75
2022/08/22 05:50:13;;;;;;;12.37;10.50;;;;;;;;;;5095178;28;20443;-76
2022/08/22 05:52:45;;;;;;;16.37;10.50;;;;;;;;;;5094404;28;20481;-75
2022/08/22 05:55:18;;;;;;;12.57;9.60;;;;;;;;;;5092885;28;20443;-75
2022/08/22 05:57:48;;;;;;;11.27;10.07;;;;;;;;;;5085375;28;20439;-74
2022/08/22 06:00:18;;;;;;;13.20;10.60;;;;;;;;;;5084331;28;20455;-74
2022/08/22 06:02:52;;;;;;;12.83;10.33;;;;;;;;;;5077490;28;20448;-74
2022/08/22 06:05:24;;;;;;;11.60;9.40;;;;;;;;;;5083493;28;20454;-74
2022/08/22 06:07:52;;;;;;;10.80;9.33;;;;;;;;;;5083185;28;20444;-74
2022/08/22 06:10:23;;;;;;;10.73;8.70;;;;;;;;;;5079067;28;20474;-74
2022/08/22 06:12:55;;;;;;;11.00;9.47;;;;;;;;;;5084680;28;20505;-75
2022/08/22 06:15:24;;;;;;;12.50;10.03;;;;;;;;;;5094206;28;20451;-74
2022/08/22 06:17:52;;;;;;;9.70;8.27;;;;;;;;;;5094494;28;20947;-74
2022/08/22 06:20:22;;;;;;;10.20;8.90;;;;;;;;;;5094449;28;20526;-74
2022/08/22 06:22:51;;;;;;;10.40;8.57;;;;;;;;;;5094074;28;20470;-74
2022/08/22 06:25:22;;;;;;;10.17;9.13;;;;;;;;;;5094090;28;20928;-75
2022/08/22 06:27:50;;;;;;;10.33;9.40;;;;;;;;;;5094386;28;20491;-74
2022/08/22 06:30:19;;;;;;;9.20;8.40;;;;;;;;;;5094162;28;20451;-74
2022/08/22 06:32:49;;;;;;;10.60;9.50;;;;;;;;;;5094180;28;20442;-74
2022/08/22 06:35:18;;;;;;;10.83;9.40;;;;;;;;;;5093942;28;20455;-74
2022/08/22 06:37:48;;;;;;;10.00;8.17;;;;;;;;;;5094028;28;20814;-75
2022/08/22 06:40:16;;;;;;;9.67;8.77;;;;;;;;;;5094136;28;20803;-75
2022/08/22 06:42:45;;;;;;;8.83;8.07;;;;;;;;;;5094021;28;20927;-75
2022/08/22 06:45:17;;;;;;;10.10;9.00;;;;;;;;;;5093460;28;20466;-74
2022/08/22 06:47:47;;;;;;;9.60;8.70;;;;;;;;;;5094047;28;21014;-74
2022/08/22 06:50:19;;;;;;;9.40;8.47;;;;;;;;;;5094000;28;20454;-75
2022/08/22 06:52:52;;;;;;;14.07;12.67;;;;;;;;;;5094114;28;20512;-75
2022/08/22 06:55:21;;;;;;;11.07;7.30;;;;;;;;;;5093672;28;20505;-74
2022/08/22 06:57:50;;;;;;;8.50;7.63;;;;;;;;;;5094039;28;20955;-74
2022/08/22 07:00:18;;;;;;;10.37;9.37;;;;;;;;;;5093832;28;20866;-74
2022/08/22 07:02:47;;;;;;;8.73;7.57;;;;;;;;;;5093721;28;20454;-74
2022/08/22 07:05:15;;;;;;;9.67;8.60;;;;;;;;;;5093557;28;20458;-74
2022/08/22 07:07:42;;;;;;;8.57;7.70;;;;;;;;;;5093524;28;20490;-74
2022/08/22 07:10:13;;;;;;;8.83;6.67;;;;;;;;;;5093825;28;20450;-74
2022/08/22 07:12:44;;;;;;;9.20;7.80;;;;;;;;;;5093106;28;20455;-74
2022/08/22 07:15:14;;;;;;;7.90;6.80;;;;;;;;;;5093411;28;21013;-74
2022/08/22 07:17:48;;;;;;;12.13;5.93;;;;;;;;;;5093602;28;20928;-75
2022/08/22 07:20:21;;;;;;;7.80;7.10;;;;;;;;;;5093413;28;20457;-74
2022/08/22 07:22:52;;;;;;;8.77;7.27;;;;;;;;;;5093175;28;20479;-74
2022/08/22 07:25:21;;;;;;;8.27;7.47;;;;;;;;;;5093043;28;20458;-74
2022/08/22 07:27:55;;;;;;;9.37;6.33;;;;;;;;;;5093338;28;21086;-74
2022/08/22 07:30:23;;;;;;;5.53;5.03;;;;;;;;;;5093384;28;20451;-75
2022/08/22 07:32:55;;;;;;;6.17;5.57;;;;;;;;;;5093389;28;20535;-74
2022/08/22 07:35:23;;;;;;;8.13;6.53;;;;;;;;;;5093286;28;20447;-74
2022/08/22 07:37:54;;;;;;;9.17;5.63;;;;;;;;;;5093211;28;20500;-74
2022/08/22 07:40:26;;;;;;;7.67;5.60;;;;;;;;;;5093045;28;20512;-75
2022/08/22 07:42:56;;;;;;;6.97;6.33;;;;;;;;;;5093048;28;20475;-75
2022/08/22 07:45:29;;;;;;;6.93;5.00;;;;;;;;;;5092770;28;20471;-74
2022/08/22 07:48:02;;;;;;;6.33;5.00;;;;;;;;;;5093133;28;20848;-75
2022/08/22 07:50:31;;;;;;;7.27;5.40;;;;;;;;;;5093083;28;20447;-74
2022/08/22 07:53:01;;;;;;;5.80;5.30;;;;;;;;;;5093130;28;20477;-75
2022/08/22 07:55:30;;;;;;;5.50;5.00;;;;;;;;;;5092747;28;20983;-74
2022/08/22 07:57:59;;;;;;;7.50;5.50;;;;;;;;;;5093082;28;20470;-75
2022/08/22 08:00:27;;;;;;;5.57;4.90;;;;;;;;;;5092922;28;20455;-75
2022/08/22 08:02:57;;;;;;;5.63;5.03;;;;;;;;;;5092933;28;20479;-75
2022/08/22 08:05:26;;;;;;;10.10;6.00;;;;;;;;;;5092742;28;20469;-75
2022/08/22 08:07:54;;;;;;;6.20;5.70;;;;;;;;;;5093041;28;21026;-75
2022/08/22 08:10:24;;;;;;;11.13;6.23;;;;;;;;;;5093020;28;20532;-74
2022/08/22 08:12:54;;;;;;;6.30;5.40;;;;;;;;;;5092273;28;20937;-74
2022/08/22 08:15:22;;;;;;;4.10;3.70;;;;;;;;;;5092509;28;20484;-75
2022/08/22 08:17:53;;;;;;;5.03;4.53;;;;;;;;;;5092679;28;20537;-75
2022/08/22 08:20:21;;;;;;;5.20;4.70;;;;;;;;;;5092874;28;20494;-75
2022/08/22 08:22:49;;;;;;;5.20;3.47;;;;;;;;;;5092808;28;20486;-74
2022/08/22 08:25:19;;;;;;;4.17;3.87;;;;;;;;;;5092584;28;20830;-74
2022/08/22 08:30:37;;;;;;;8.23;4.20;;;;;;;;;;5092867;28;20418;-74
2022/08/22 08:33:04;;;;;;;6.73;4.90;;;;;;;;;;5092856;28;20967;-74
2022/08/22 08:35:34;;;;;;;6.10;4.13;;;;;;;;;;5093185;28;20477;-74
2022/08/22 08:38:03;;;;;;;7.17;4.20;;;;;;;;;;5096715;28;21036;-74
2022/08/22 08:40:48;;;;;;;4.67;4.27;;;;;;;;;;5096514;28;20457;-75
2022/08/22 08:43:28;;;;;;;4.13;3.60;;;;;;;;;;5096492;28;20481;-75
2022/08/22 08:46:13;;;;;;;4.70;4.20;;;;;;;;;;5096343;28;20458;-75
2022/08/22 08:48:59;;;;;;;8.57;3.67;;;;;;;;;;5096338;28;20446;-74
2022/08/22 08:51:41;;;;;;;3.73;3.00;;;;;;;;;;5096347;28;20446;-75
2022/08/22 08:54:14;;;;;;;5.57;3.93;;;;;;;;;;5095980;28;20474;-75
2022/08/22 08:56:47;;;;;;;7.53;3.30;;;;;;;;;;5096304;28;20442;-75
2022/08/22 08:59:25;;;;;;;4.07;3.33;;;;;;;;;;5096119;28;20449;-74
2022/08/22 09:02:02;;;;;;;5.70;3.70;;;;;;;;;;5096423;28;20442;-75
2022/08/22 09:04:38;;;;;;;4.07;2.90;;;;;;;;;;5095679;28;20466;-75
2022/08/22 09:07:22;;;;;;;3.50;2.97;;;;;;;;;;5095928;28;20489;-75
2022/08/22 09:09:57;;;;;;;4.33;3.90;;;;;;;;;;5096045;28;20936;-75
2022/08/22 09:12:35;;;;;;;5.20;3.90;;;;;;;;;;5096119;28;20450;-75
2022/08/22 09:15:19;;;;;;;4.27;3.27;;;;;;;;;;5095713;28;20462;-75
2022/08/22 09:18:04;;;;;;;3.60;3.07;;;;;;;;;;5095839;28;20439;-75
2022/08/22 09:20:49;;;;;;;5.23;3.80;;;;;;;;;;5095858;28;20533;-75
2022/08/22 09:23:47;;;;;;;4.50;4.10;;;;;;;;;;5095698;28;20478;-75
2022/08/22 09:26:16;;;;;;;3.77;3.47;;;;;;;;;;5095477;28;20450;-75
2022/08/22 09:28:50;;;;;;;3.97;3.30;;;;;;;;;;5095477;28;20482;-75
2022/08/22 09:31:28;;;;;;;6.10;4.50;;;;;;;;;;5095687;28;20895;-75
2022/08/22 09:34:00;;;;;;;6.57;3.47;;;;;;;;;;5095299;28;20470;-75
2022/08/22 09:36:31;;;;;;;3.77;3.37;;;;;;;;;;5095612;28;20465;-75
2022/08/22 09:38:59;;;;;;;7.37;4.17;;;;;;;;;;5095546;28;20450;-75
2022/08/22 09:41:30;;;;;;;5.27;4.77;;;;;;;;;;5095354;28;20501;-75
2022/08/22 09:44:04;;;;;;;4.90;3.60;;;;;;;;;;5095131;28;20463;-75
2022/08/22 09:46:34;;;;;;;7.33;3.13;;;;;;;;;;5094733;28;20462;-75
2022/08/22 09:49:05;;;;;;;4.10;3.70;;;;;;;;;;5095237;28;20533;-75
2022/08/22 09:51:37;;;;;;;5.27;3.23;;;;;;;;;;5095112;28;20455;-75
2022/08/22 09:54:19;;;;;;;3.57;3.27;;;;;;;;;;5094947;28;20591;-76
2022/08/22 09:56:53;;;;;;;4.03;3.63;;;;;;;;;;5092781;28;20459;-75
2022/08/22 09:59:22;;;;;;;3.83;3.53;;;;;;;;;;5094898;28;20447;-75
2022/08/22 10:01:54;;;;;;;5.10;3.40;;;;;;;;;;5094966;28;20455;-75
2022/08/22 10:04:29;;;;;;;4.87;3.03;;;;;;;;;;5094649;28;20984;-75
2022/08/22 10:06:59;;;;;;;4.27;3.57;;;;;;;;;;5094810;28;20446;-75
2022/08/22 10:09:28;;;;;;;4.23;3.50;;;;;;;;;;5094862;28;20450;-75
2022/08/22 10:12:00;;;;;;;10.13;3.27;;;;;;;;;;5094966;28;20473;-75
2022/08/22 10:14:31;;;;;;;4.03;3.73;;;;;;;;;;5093844;28;20470;-75
2022/08/22 10:17:03;;;;;;;5.33;3.07;;;;;;;;;;5095034;28;20446;-75
2022/08/22 10:19:35;;;;;;;2.93;2.60;;;;;;;;;;5094538;28;20853;-75
2022/08/22 10:22:23;;;;;;;3.03;2.57;;;;;;;;;;5094650;28;20450;-75
2022/08/22 10:24:57;;;;;;;4.03;3.07;;;;;;;;;;5094472;28;20482;-76
2022/08/22 10:27:33;;;;;;;4.70;2.27;;;;;;;;;;5094421;28;20490;-75
2022/08/22 10:30:04;;;;;;;3.70;2.20;;;;;;;;;;5094448;28;20503;-75
2022/08/22 10:32:35;;;;;;;4.90;3.87;;;;;;;;;;5094298;28;20928;-75
2022/08/22 10:35:09;;;;;;;2.80;2.27;;;;;;;;;;5094300;28;20458;-75
2022/08/22 10:37:39;;;;;;;2.93;2.17;;;;;;;;;;5094325;28;20454;-75
2022/08/22 10:40:10;;;;;;;4.60;2.47;;;;;;;;;;5094435;28;20450;-75
2022/08/22 10:42:39;;;;;;;3.13;2.60;;;;;;;;;;5094025;28;20458;-75
2022/08/22 10:45:27;;;;;;;4.00;2.40;;;;;;;;;;5093992;28;20471;-75
2022/08/22 10:48:13;;;;;;;3.23;2.60;;;;;;;;;;5094008;28;20487;-75
2022/08/22 10:50:44;;;;;;;2.50;2.30;;;;;;;;;;5093979;28;20453;-75
2022/08/22 10:53:32;;;;;;;2.83;2.10;;;;;;;;;;5094024;28;20474;-75
2022/08/22 10:56:09;;;;;;;3.93;1.80;;;;;;;;;;5093977;28;20538;-75
2022/08/22 10:58:38;;;;;;;1.80;1.60;;;;;;;;;;5093180;28;20495;-75
2022/08/22 11:01:07;;;;;;;3.83;2.90;;;;;;;;;;5093855;28;20545;-76
2022/08/22 11:03:40;;;;;;;2.50;2.10;;;;;;;;;;5093462;28;20545;-75
2022/08/22 11:06:13;;;;;;;3.30;1.90;;;;;;;;;;5093960;28;20455;-75
2022/08/22 11:08:55;;;;;;;3.47;2.13;;;;;;;;;;5093550;28;20486;-75
2022/08/22 11:11:31;;;;;;;3.60;2.43;;;;;;;;;;5091590;28;20455;-75
2022/08/22 11:14:07;;;;;;;3.93;2.33;;;;;;;;;;5093121;28;20994;-76
2022/08/22 11:16:42;;;;;;;2.50;1.90;;;;;;;;;;5093488;28;20473;-76
2022/08/22 11:19:12;;;;;;;2.30;2.10;;;;;;;;;;5093624;28;20449;-75
2022/08/22 11:21:45;;;;;;;3.07;2.27;;;;;;;;;;5093563;28;20505;-76
2022/08/22 11:24:20;;;;;;;3.57;2.03;;;;;;;;;;5093296;28;20466;-75
2022/08/22 11:26:51;;;;;;;2.30;2.10;;;;;;;;;;5093497;28;20457;-76
2022/08/22 11:29:25;;;;;;;3.50;2.00;;;;;;;;;;5093238;28;20854;-76
2022/08/22 11:31:55;;;;;;;2.97;2.00;;;;;;;;;;5093525;28;20552;-76
2022/08/22 11:34:28;;;;;;;2.27;2.00;;;;;;;;;;5093017;28;20477;-76
2022/08/22 11:37:02;;;;;;;2.47;1.93;;;;;;;;;;5093384;28;20462;-76
2022/08/22 11:39:34;;;;;;;2.20;2.00;;;;;;;;;;5093160;28;20979;-76
2022/08/22 11:42:05;;;;;;;2.70;2.20;;;;;;;;;;5093225;28;20455;-75
2022/08/22 11:44:33;;;;;;;5.23;2.10;;;;;;;;;;5092822;28;21008;-75
2022/08/22 11:47:02;;;;;;;2.37;2.10;;;;;;;;;;5093099;28;20458;-75
2022/08/22 11:49:33;;;;;;;2.67;2.40;;;;;;;;;;5093018;28;20995;-75
2022/08/22 11:52:11;;;;;;;4.00;2.07;;;;;;;;;;5093223;28;20520;-76
2022/08/22 11:55:04;;;;;;;2.97;2.27;;;;;;;;;;5092861;28;20466;-75
2022/08/22 11:57:33;;;;;;;3.63;2.30;;;;;;;;;;5092940;28;20462;-75
2022/08/22 12:00:10;;;;;;;5.83;2.87;;;;;;;;;;5093188;28;20462;-75
2022/08/22 12:02:44;;;;;;;2.30;1.97;;;;;;;;;;5092920;28;21035;-76
2022/08/22 12:05:14;;;;;;;3.87;1.97;;;;;;;;;;5092888;28;20450;-76
2022/08/22 12:07:46;;;;;;;2.17;1.97;;;;;;;;;;5092932;28;21072;-76
2022/08/22 12:10:15;;;;;;;2.57;2.37;;;;;;;;;;5094967;28;20458;-76
2022/08/22 12:12:52;;;;;;;3.80;2.60;;;;;;;;;;5096803;28;20443;-75
2022/08/22 12:15:22;;;;;;;3.30;2.40;;;;;;;;;;5096869;28;20446;-76
2022/08/22 12:18:04;;;;;;;3.50;2.47;;;;;;;;;;5097391;28;20525;-76
2022/08/22 12:20:49;;;;;;;3.73;2.80;;;;;;;;;;5084131;28;20848;-75
2022/08/22 12:23:25;;;;;;;4.23;2.30;;;;;;;;;;5096602;28;20479;-75
2022/08/22 12:26:03;;;;;;;3.10;2.27;;;;;;;;;;5096908;28;20815;-75
2022/08/22 12:28:33;;;;;;;2.93;2.40;;;;;;;;;;5096517;28;21017;-76
2022/08/22 12:31:06;;;;;;;5.33;2.80;;;;;;;;;;5096803;28;20458;-76
2022/08/22 12:33:40;;;;;;;4.10;2.47;;;;;;;;;;5096415;28;20485;-76
2022/08/22 12:36:18;;;;;;;3.23;2.80;;;;;;;;;;5096638;28;20453;-75
2022/08/22 12:38:51;;;;;;;3.57;2.30;;;;;;;;;;5096753;28;20451;-75
2022/08/22 12:41:26;;;;;;;3.80;3.00;;;;;;;;;;5096647;28;20928;-76
2022/08/22 12:43:58;;;;;;;3.37;2.37;;;;;;;;;;5096207;28;20470;-75
2022/08/22 12:46:32;;;;;;;2.70;2.30;;;;;;;;;;5096215;28;20963;-76
2022/08/22 12:49:05;;;;;;;4.10;2.87;;;;;;;;;;5096415;28;20839;-75
2022/08/22 12:51:34;;;;;;;3.90;2.30;;;;;;;;;;5096203;28;20450;-75
2022/08/22 12:54:15;;;;;;;4.93;2.43;;;;;;;;;;5096177;28;20470;-75
2022/08/22 12:56:46;;;;;;;3.43;3.13;;;;;;;;;;5096131;28;20458;-76
2022/08/22 12:59:19;;;;;;;2.43;2.23;;;;;;;;;;5096118;28;20935;-75
2022/08/22 13:01:47;;;;;;;5.73;2.50;;;;;;;;;;5095725;28;20473;-74
2022/08/22 13:04:15;;;;;;;4.70;2.67;;;;;;;;;;5095743;28;20463;-74
2022/08/22 13:06:54;;;;;;;3.23;2.23;;;;;;;;;;5089616;28;20786;-74
2022/08/22 13:09:27;;;;;;;3.10;2.30;;;;;;;;;;5084322;28;20490;-75
2022/08/22 13:11:56;;;;;;;4.30;2.27;;;;;;;;;;5079217;28;20458;-75
2022/08/22 13:14:25;;;;;;;4.53;2.40;;;;;;;;;;5074880;28;20563;-75
2022/08/22 13:16:58;;;;;;;4.23;2.10;;;;;;;;;;5075699;28;20460;-75
2022/08/22 13:19:27;;;;;;;5.07;2.43;;;;;;;;;;5075398;28;20582;-75
2022/08/22 13:21:58;;;;;;;4.30;2.57;;;;;;;;;;5074560;28;20447;-75
2022/08/22 13:24:30;;;;;;;5.27;2.50;;;;;;;;;;5075203;28;20495;-75
2022/08/22 13:27:01;;;;;;;3.07;2.70;;;;;;;;;;5075489;28;20947;-75
2022/08/22 13:29:40;;;;;;;3.83;2.47;;;;;;;;;;5075323;28;20494;-75
2022/08/22 13:32:08;;;;;;;3.93;2.73;;;;;;;;;;5075352;28;20827;-76
2022/08/22 13:34:38;;;;;;;3.57;2.53;;;;;;;;;;5074307;28;21105;-75
2022/08/22 13:37:07;;;;;;;2.50;2.13;;;;;;;;;;5095030;28;20464;-76
2022/08/22 13:39:37;;;;;;;3.73;2.23;;;;;;;;;;5094730;28;20453;-76
2022/08/22 13:42:06;;;;;;;2.67;2.27;;;;;;;;;;5095463;28;20548;-76
2022/08/22 13:44:37;;;;;;;4.30;2.50;;;;;;;;;;5094562;28;20482;-75
2022/08/22 13:47:06;;;;;;;4.53;2.83;;;;;;;;;;5094954;28;20504;-75
2022/08/22 13:49:34;;;;;;;3.47;2.00;;;;;;;;;;5094814;28;20609;-76
2022/08/22 13:52:06;;;;;;;3.00;2.40;;;;;;;;;;5095158;28;20459;-76
2022/08/22 13:54:39;;;;;;;5.63;2.10;;;;;;;;;;5094702;28;20470;-75
2022/08/22 13:57:09;;;;;;;3.03;2.40;;;;;;;;;;5094968;28;20943;-75
2022/08/22 13:59:46;;;;;;;2.20;1.90;;;;;;;;;;5094831;28;20447;-75
2022/08/22 14:02:17;;;;;;;3.37;2.50;;;;;;;;;;5094896;28;20472;-75
2022/08/22 14:04:45;;;;;;;5.67;2.57;;;;;;;;;;5094444;28;20471;-75
2022/08/22 14:07:20;;;;;;;7.30;2.77;;;;;;;;;;5093150;28;20549;-75
2022/08/22 14:09:53;;;;;;;4.00;2.70;;;;;;;;;;5094245;28;20862;-75
2022/08/22 14:12:22;;;;;;;4.37;3.20;;;;;;;;;;5094959;28;20458;-75
2022/08/22 14:14:55;;;;;;;3.67;2.60;;;;;;;;;;5093942;28;20467;-75
2022/08/22 14:17:24;;;;;;;2.80;2.27;;;;;;;;;;5094610;28;20446;-76
2022/08/22 14:19:54;;;;;;;4.30;2.37;;;;;;;;;;5094677;28;20447;-76
2022/08/22 14:22:22;;;;;;;3.23;2.50;;;;;;;;;;5094518;28;20511;-76
2022/08/22 14:24:53;;;;;;;4.07;2.50;;;;;;;;;;5094660;28;20475;-75
2022/08/22 14:27:28;;;;;;;7.73;3.90;;;;;;;;;;5094446;28;20453;-75
2022/08/22 14:29:56;;;;;;;2.23;1.97;;;;;;;;;;5094412;28;20481;-75
2022/08/22 14:32:33;;;;;;;2.67;2.17;;;;;;;;;;5094497;28;20457;-75
2022/08/22 14:35:02;;;;;;;2.70;2.03;;;;;;;;;;5094321;28;20446;-75
2022/08/22 14:37:33;;;;;;;3.80;2.33;;;;;;;;;;5094353;28;20446;-75
2022/08/22 14:40:05;;;;;;;3.23;2.40;;;;;;;;;;5088079;28;20937;-75
2022/08/22 14:42:39;;;;;;;3.40;2.20;;;;;;;;;;5081744;28;20924;-76
2022/08/22 14:45:11;;;;;;;5.07;2.13;;;;;;;;;;5084377;28;20451;-76
2022/08/22 14:47:42;;;;;;;4.50;2.20;;;;;;;;;;5094150;28;20536;-76
2022/08/22 14:50:10;;;;;;;2.73;1.80;;;;;;;;;;5094012;28;20493;-76
2022/08/22 14:52:39;;;;;;;3.37;2.20;;;;;;;;;;5093910;28;20450;-76
2022/08/22 14:55:10;;;;;;;2.63;2.10;;;;;;;;;;5093940;28;21007;-76
2022/08/22 14:57:38;;;;;;;2.53;2.00;;;;;;;;;;5093836;28;20466;-76
2022/08/22 15:00:09;;;;;;;2.77;2.17;;;;;;;;;;5093885;28;20450;-77
2022/08/22 15:02:37;;;;;;;2.67;2.00;;;;;;;;;;5093758;28;20466;-77
2022/08/22 15:05:13;;;;;;;2.40;1.93;;;;;;;;;;5093640;28;20455;-77
2022/08/22 15:07:40;;;;;;;3.70;1.73;;;;;;;;;;5093756;28;20970;-77
2022/08/22 15:10:18;;;;;;;3.90;1.60;;;;;;;;;;5093702;28;20852;-76
2022/08/22 15:12:47;;;;;;;2.20;2.00;;;;;;;;;;5093356;28;20450;-76
2022/08/22 15:15:27;;;;;;;2.87;2.27;;;;;;;;;;5093552;28;20455;-76